sensor_id;sensor_type;location;lat;lon;timestamp;temperature;humidity
57242;DHT22;43095;53.302;5.786;2024-01-07T00:00:26;-0.30;99.90
57242;DHT22;43095;53.302;5.786;2024-01-07T00:02:53;-0.30;99.90
57242;DHT22;43095;53.302;5.786;2024-01-07T00:05:21;-0.30;99.90
57242;DHT22;43095;53.302;5.786;2024-01-07T00:07:48;-0.30;99.90
57242;DHT22;43095;53.302;5.786;2024-01-07T00:10:17;-0.30;99.90
57242;DHT22;43095;53.302;5.786;2024-01-07T00:12:44;-0.30;99.90
57242;DHT22;43095;53.302;5.786;2024-01-07T00:15:11;-0.30;99.90
57242;DHT22;43095;53.302;5.786;2024-01-07T00:17:39;-0.30;99.90
57242;DHT22;43095;53.302;5.786;2024-01-07T00:20:06;-0.30;99.90
57242;DHT22;43095;53.302;5.786;2024-01-07T00:22:34;-0.30;99.90
57242;DHT22;43095;53.302;5.786;2024-01-07T00:25:01;-0.30;99.90
57242;DHT22;43095;53.302;5.786;2024-01-07T00:27:29;-0.40;99.90
57242;DHT22;43095;53.302;5.786;2024-01-07T00:29:57;-0.40;99.90
57242;DHT22;43095;53.302;5.786;2024-01-07T00:32:24;-0.40;99.90
57242;DHT22;43095;53.302;5.786;2024-01-07T00:34:52;-0.40;99.90
57242;DHT22;43095;53.302;5.786;2024-01-07T00:37:22;-0.40;99.90
57242;DHT22;43095;53.302;5.786;2024-01-07T00:39:50;-0.40;99.90
57242;DHT22;43095;53.302;5.786;2024-01-07T00:42:17;-0.40;99.90
57242;DHT22;43095;53.302;5.786;2024-01-07T00:44:44;-0.40;99.90
57242;DHT22;43095;53.302;5.786;2024-01-07T00:47:12;-0.40;99.90
57242;DHT22;43095;53.302;5.786;2024-01-07T00:49:39;-0.40;99.90
57242;DHT22;43095;53.302;5.786;2024-01-07T00:52:07;-0.40;99.90
57242;DHT22;43095;53.302;5.786;2024-01-07T00:54:35;-0.40;99.90
57242;DHT22;43095;53.302;5.786;2024-01-07T00:57:03;-0.50;99.90
57242;DHT22;43095;53.302;5.786;2024-01-07T00:59:31;-0.50;99.90
57242;DHT22;43095;53.302;5.786;2024-01-07T01:01:58;-0.60;99.90
57242;DHT22;43095;53.302;5.786;2024-01-07T01:04:25;-0.60;99.90
57242;DHT22;43095;53.302;5.786;2024-01-07T01:06:52;-0.60;99.90
57242;DHT22;43095;53.302;5.786;2024-01-07T01:09:20;-0.60;99.90
57242;DHT22;43095;53.302;5.786;2024-01-07T01:11:47;-0.70;99.90
57242;DHT22;43095;53.302;5.786;2024-01-07T01:14:16;-0.60;99.90
57242;DHT22;43095;53.302;5.786;2024-01-07T01:16:43;-0.60;99.90
57242;DHT22;43095;53.302;5.786;2024-01-07T01:19:11;-0.60;99.90
57242;DHT22;43095;53.302;5.786;2024-01-07T01:21:38;-0.60;99.90
57242;DHT22;43095;53.302;5.786;2024-01-07T01:24:05;-0.60;99.90
57242;DHT22;43095;53.302;5.786;2024-01-07T01:26:33;-0.60;99.90
57242;DHT22;43095;53.302;5.786;2024-01-07T01:29:00;-0.60;99.90
57242;DHT22;43095;53.302;5.786;2024-01-07T01:31:27;-0.60;99.90
57242;DHT22;43095;53.302;5.786;2024-01-07T01:33:54;-0.60;99.90
57242;DHT22;43095;53.302;5.786;2024-01-07T01:36:22;-0.60;99.90
57242;DHT22;43095;53.302;5.786;2024-01-07T01:38:49;-0.60;99.90
57242;DHT22;43095;53.302;5.786;2024-01-07T01:41:16;-0.60;99.90
57242;DHT22;43095;53.302;5.786;2024-01-07T01:43:44;-0.60;99.90
57242;DHT22;43095;53.302;5.786;2024-01-07T01:46:12;-0.60;99.90
57242;DHT22;43095;53.302;5.786;2024-01-07T01:48:41;-0.60;99.90
57242;DHT22;43095;53.302;5.786;2024-01-07T01:51:09;-0.60;99.90
57242;DHT22;43095;53.302;5.786;2024-01-07T01:53:37;-0.60;99.90
57242;DHT22;43095;53.302;5.786;2024-01-07T01:56:05;-0.60;99.90
57242;DHT22;43095;53.302;5.786;2024-01-07T01:58:33;-0.60;99.90
57242;DHT22;43095;53.302;5.786;2024-01-07T02:01:00;-0.70;99.90
57242;DHT22;43095;53.302;5.786;2024-01-07T02:03:28;-0.70;99.90
57242;DHT22;43095;53.302;5.786;2024-01-07T02:05:56;-0.60;99.90
57242;DHT22;43095;53.302;5.786;2024-01-07T02:08:25;-0.60;99.70
57242;DHT22;43095;53.302;5.786;2024-01-07T02:10:53;-0.60;99.70
57242;DHT22;43095;53.302;5.786;2024-01-07T02:13:20;-0.70;99.50
57242;DHT22;43095;53.302;5.786;2024-01-07T02:15:47;-0.60;99.60
57242;DHT22;43095;53.302;5.786;2024-01-07T02:18:15;-0.60;99.70
57242;DHT22;43095;53.302;5.786;2024-01-07T02:20:42;-0.70;99.70
57242;DHT22;43095;53.302;5.786;2024-01-07T02:23:10;-0.60;99.80
57242;DHT22;43095;53.302;5.786;2024-01-07T02:25:37;-0.60;99.80
57242;DHT22;43095;53.302;5.786;2024-01-07T02:28:05;-0.60;99.80
57242;DHT22;43095;53.302;5.786;2024-01-07T02:30:33;-0.60;99.70
57242;DHT22;43095;53.302;5.786;2024-01-07T02:33:02;-0.60;99.70
57242;DHT22;43095;53.302;5.786;2024-01-07T02:35:31;-0.60;99.50
57242;DHT22;43095;53.302;5.786;2024-01-07T02:37:58;-0.60;99.40
57242;DHT22;43095;53.302;5.786;2024-01-07T02:40:26;-0.70;99.40
57242;DHT22;43095;53.302;5.786;2024-01-07T02:42:53;-0.70;99.40
57242;DHT22;43095;53.302;5.786;2024-01-07T02:45:20;-0.70;99.20
57242;DHT22;43095;53.302;5.786;2024-01-07T02:47:47;-0.70;99.20
57242;DHT22;43095;53.302;5.786;2024-01-07T02:50:14;-0.70;99.00
57242;DHT22;43095;53.302;5.786;2024-01-07T02:52:43;-0.70;99.00
57242;DHT22;43095;53.302;5.786;2024-01-07T02:55:11;-0.70;99.00
57242;DHT22;43095;53.302;5.786;2024-01-07T02:57:42;-0.80;98.80
57242;DHT22;43095;53.302;5.786;2024-01-07T03:00:10;-0.80;98.70
57242;DHT22;43095;53.302;5.786;2024-01-07T03:02:37;-0.80;98.80
57242;DHT22;43095;53.302;5.786;2024-01-07T03:05:05;-0.90;98.80
57242;DHT22;43095;53.302;5.786;2024-01-07T03:07:32;-0.90;98.80
57242;DHT22;43095;53.302;5.786;2024-01-07T03:09:59;-0.90;98.80
57242;DHT22;43095;53.302;5.786;2024-01-07T03:12:27;-0.90;98.70
57242;DHT22;43095;53.302;5.786;2024-01-07T03:14:54;-0.90;98.70
57242;DHT22;43095;53.302;5.786;2024-01-07T03:17:21;-0.90;98.70
57242;DHT22;43095;53.302;5.786;2024-01-07T03:19:49;-0.90;98.70
57242;DHT22;43095;53.302;5.786;2024-01-07T03:22:16;-0.90;98.70
57242;DHT22;43095;53.302;5.786;2024-01-07T03:24:43;-0.80;98.70
57242;DHT22;43095;53.302;5.786;2024-01-07T03:27:11;-0.80;98.50
57242;DHT22;43095;53.302;5.786;2024-01-07T03:29:38;-0.80;98.30
57242;DHT22;43095;53.302;5.786;2024-01-07T03:32:06;-0.80;98.20
57242;DHT22;43095;53.302;5.786;2024-01-07T03:34:34;-0.70;98.30
57242;DHT22;43095;53.302;5.786;2024-01-07T03:37:01;-0.70;98.40
57242;DHT22;43095;53.302;5.786;2024-01-07T03:39:28;-0.70;98.00
57242;DHT22;43095;53.302;5.786;2024-01-07T03:41:55;-0.70;97.60
57242;DHT22;43095;53.302;5.786;2024-01-07T03:44:23;-0.70;97.30
57242;DHT22;43095;53.302;5.786;2024-01-07T03:46:50;-0.70;97.20
57242;DHT22;43095;53.302;5.786;2024-01-07T03:49:17;-0.70;97.10
57242;DHT22;43095;53.302;5.786;2024-01-07T03:51:45;-0.60;97.20
57242;DHT22;43095;53.302;5.786;2024-01-07T03:54:12;-0.60;97.20
57242;DHT22;43095;53.302;5.786;2024-01-07T03:56:39;-0.60;97.20
57242;DHT22;43095;53.302;5.786;2024-01-07T03:59:06;-0.60;96.90
57242;DHT22;43095;53.302;5.786;2024-01-07T04:01:34;-0.60;96.80
57242;DHT22;43095;53.302;5.786;2024-01-07T04:04:01;-0.50;96.80
57242;DHT22;43095;53.302;5.786;2024-01-07T04:06:29;-0.50;96.80
57242;DHT22;43095;53.302;5.786;2024-01-07T04:08:56;-0.50;96.80
57242;DHT22;43095;53.302;5.786;2024-01-07T04:11:23;-0.50;96.40
57242;DHT22;43095;53.302;5.786;2024-01-07T04:13:50;-0.50;96.50
57242;DHT22;43095;53.302;5.786;2024-01-07T04:16:19;-0.50;95.70
57242;DHT22;43095;53.302;5.786;2024-01-07T04:18:47;-0.50;96.00
57242;DHT22;43095;53.302;5.786;2024-01-07T04:21:19;-0.50;95.70
57242;DHT22;43095;53.302;5.786;2024-01-07T04:23:47;-0.50;95.90
57242;DHT22;43095;53.302;5.786;2024-01-07T04:26:14;-0.50;95.60
57242;DHT22;43095;53.302;5.786;2024-01-07T04:28:42;-0.40;95.60
57242;DHT22;43095;53.302;5.786;2024-01-07T04:31:10;-0.50;95.30
57242;DHT22;43095;53.302;5.786;2024-01-07T04:33:37;-0.50;95.20
57242;DHT22;43095;53.302;5.786;2024-01-07T04:36:05;-0.50;94.60
57242;DHT22;43095;53.302;5.786;2024-01-07T04:38:32;-0.50;94.70
57242;DHT22;43095;53.302;5.786;2024-01-07T04:40:59;-0.50;94.50
57242;DHT22;43095;53.302;5.786;2024-01-07T04:43:27;-0.50;94.40
57242;DHT22;43095;53.302;5.786;2024-01-07T04:45:54;-0.50;94.40
57242;DHT22;43095;53.302;5.786;2024-01-07T04:48:22;-0.50;94.50
57242;DHT22;43095;53.302;5.786;2024-01-07T04:50:49;-0.50;93.80
57242;DHT22;43095;53.302;5.786;2024-01-07T04:53:17;-0.50;93.40
57242;DHT22;43095;53.302;5.786;2024-01-07T04:55:44;-0.50;93.40
57242;DHT22;43095;53.302;5.786;2024-01-07T04:58:11;-0.50;93.60
57242;DHT22;43095;53.302;5.786;2024-01-07T05:00:38;-0.50;93.10
57242;DHT22;43095;53.302;5.786;2024-01-07T05:03:06;-0.50;92.90
57242;DHT22;43095;53.302;5.786;2024-01-07T05:05:33;-0.50;93.40
57242;DHT22;43095;53.302;5.786;2024-01-07T05:08:00;-0.50;92.80
57242;DHT22;43095;53.302;5.786;2024-01-07T05:10:27;-0.50;93.00
57242;DHT22;43095;53.302;5.786;2024-01-07T05:12:54;-0.50;93.20
57242;DHT22;43095;53.302;5.786;2024-01-07T05:15:22;-0.50;93.10
57242;DHT22;43095;53.302;5.786;2024-01-07T05:17:49;-0.50;93.10
57242;DHT22;43095;53.302;5.786;2024-01-07T05:20:16;-0.40;93.00
57242;DHT22;43095;53.302;5.786;2024-01-07T05:22:43;-0.40;93.20
57242;DHT22;43095;53.302;5.786;2024-01-07T05:25:10;-0.40;92.40
57242;DHT22;43095;53.302;5.786;2024-01-07T05:27:38;-0.40;91.90
57242;DHT22;43095;53.302;5.786;2024-01-07T05:30:06;-0.40;92.20
57242;DHT22;43095;53.302;5.786;2024-01-07T05:32:34;-0.40;92.20
57242;DHT22;43095;53.302;5.786;2024-01-07T05:35:02;-0.40;91.80
57242;DHT22;43095;53.302;5.786;2024-01-07T05:37:29;-0.40;91.80
57242;DHT22;43095;53.302;5.786;2024-01-07T05:39:56;-0.40;92.00
57242;DHT22;43095;53.302;5.786;2024-01-07T05:42:23;-0.40;91.60
57242;DHT22;43095;53.302;5.786;2024-01-07T05:44:51;-0.40;90.30
57242;DHT22;43095;53.302;5.786;2024-01-07T05:47:18;-0.30;90.70
57242;DHT22;43095;53.302;5.786;2024-01-07T05:49:45;-0.40;90.90
57242;DHT22;43095;53.302;5.786;2024-01-07T05:52:12;-0.30;90.70
57242;DHT22;43095;53.302;5.786;2024-01-07T05:54:40;-0.40;90.50
57242;DHT22;43095;53.302;5.786;2024-01-07T05:57:07;-0.40;90.40
57242;DHT22;43095;53.302;5.786;2024-01-07T05:59:34;-0.40;90.70
57242;DHT22;43095;53.302;5.786;2024-01-07T06:02:01;-0.30;90.50
57242;DHT22;43095;53.302;5.786;2024-01-07T06:04:29;-0.40;90.20
57242;DHT22;43095;53.302;5.786;2024-01-07T06:06:56;-0.30;89.90
57242;DHT22;43095;53.302;5.786;2024-01-07T06:09:23;-0.40;90.10
57242;DHT22;43095;53.302;5.786;2024-01-07T06:11:51;-0.40;89.50
57242;DHT22;43095;53.302;5.786;2024-01-07T06:14:18;-0.30;89.40
57242;DHT22;43095;53.302;5.786;2024-01-07T06:16:46;-0.40;89.70
57242;DHT22;43095;53.302;5.786;2024-01-07T06:19:13;-0.30;89.20
57242;DHT22;43095;53.302;5.786;2024-01-07T06:21:41;-0.40;89.00
57242;DHT22;43095;53.302;5.786;2024-01-07T06:24:08;-0.30;88.70
57242;DHT22;43095;53.302;5.786;2024-01-07T06:26:36;-0.30;88.50
57242;DHT22;43095;53.302;5.786;2024-01-07T06:29:03;-0.30;89.00
57242;DHT22;43095;53.302;5.786;2024-01-07T06:31:30;-0.30;88.80
57242;DHT22;43095;53.302;5.786;2024-01-07T06:33:58;-0.30;88.30
57242;DHT22;43095;53.302;5.786;2024-01-07T06:36:25;-0.30;88.50
57242;DHT22;43095;53.302;5.786;2024-01-07T06:38:53;-0.30;88.30
57242;DHT22;43095;53.302;5.786;2024-01-07T06:41:20;-0.40;88.30
57242;DHT22;43095;53.302;5.786;2024-01-07T06:43:47;-0.40;88.30
57242;DHT22;43095;53.302;5.786;2024-01-07T06:46:14;-0.30;87.80
57242;DHT22;43095;53.302;5.786;2024-01-07T06:48:42;-0.40;87.90
57242;DHT22;43095;53.302;5.786;2024-01-07T06:51:15;-0.30;88.20
57242;DHT22;43095;53.302;5.786;2024-01-07T06:53:42;-0.30;88.00
57242;DHT22;43095;53.302;5.786;2024-01-07T06:56:09;-0.40;88.00
57242;DHT22;43095;53.302;5.786;2024-01-07T06:58:36;-0.40;87.60
57242;DHT22;43095;53.302;5.786;2024-01-07T07:01:06;-0.40;87.50
57242;DHT22;43095;53.302;5.786;2024-01-07T07:03:34;-0.40;87.90
57242;DHT22;43095;53.302;5.786;2024-01-07T07:06:01;-0.40;87.90
57242;DHT22;43095;53.302;5.786;2024-01-07T07:08:29;-0.40;87.60
57242;DHT22;43095;53.302;5.786;2024-01-07T07:10:56;-0.40;87.50
57242;DHT22;43095;53.302;5.786;2024-01-07T07:13:23;-0.40;87.10
57242;DHT22;43095;53.302;5.786;2024-01-07T07:15:50;-0.40;87.60
57242;DHT22;43095;53.302;5.786;2024-01-07T07:18:17;-0.30;87.50
57242;DHT22;43095;53.302;5.786;2024-01-07T07:20:44;-0.40;87.50
57242;DHT22;43095;53.302;5.786;2024-01-07T07:23:11;-0.40;87.50
57242;DHT22;43095;53.302;5.786;2024-01-07T07:25:39;-0.40;87.70
57242;DHT22;43095;53.302;5.786;2024-01-07T07:28:06;-0.40;87.70
57242;DHT22;43095;53.302;5.786;2024-01-07T07:30:33;-0.50;87.80
57242;DHT22;43095;53.302;5.786;2024-01-07T07:33:00;-0.50;87.70
57242;DHT22;43095;53.302;5.786;2024-01-07T07:35:28;-0.60;87.60
57242;DHT22;43095;53.302;5.786;2024-01-07T07:37:55;-0.60;87.60
57242;DHT22;43095;53.302;5.786;2024-01-07T07:40:22;-0.60;88.00
57242;DHT22;43095;53.302;5.786;2024-01-07T07:42:50;-0.70;88.10
57242;DHT22;43095;53.302;5.786;2024-01-07T07:45:18;-0.70;88.00
57242;DHT22;43095;53.302;5.786;2024-01-07T07:47:45;-0.70;88.10
57242;DHT22;43095;53.302;5.786;2024-01-07T07:50:12;-0.70;88.20
57242;DHT22;43095;53.302;5.786;2024-01-07T07:52:42;-0.80;88.30
57242;DHT22;43095;53.302;5.786;2024-01-07T07:55:10;-0.80;88.20
57242;DHT22;43095;53.302;5.786;2024-01-07T07:57:38;-0.90;87.90
57242;DHT22;43095;53.302;5.786;2024-01-07T08:00:07;-0.90;87.90
57242;DHT22;43095;53.302;5.786;2024-01-07T08:02:34;-0.90;87.90
57242;DHT22;43095;53.302;5.786;2024-01-07T08:05:01;-0.90;87.90
57242;DHT22;43095;53.302;5.786;2024-01-07T08:07:29;-1.00;87.70
57242;DHT22;43095;53.302;5.786;2024-01-07T08:09:56;-1.00;87.50
57242;DHT22;43095;53.302;5.786;2024-01-07T08:12:24;-1.00;87.60
57242;DHT22;43095;53.302;5.786;2024-01-07T08:14:51;-1.00;87.00
57242;DHT22;43095;53.302;5.786;2024-01-07T08:17:18;-1.00;86.50
57242;DHT22;43095;53.302;5.786;2024-01-07T08:19:46;-1.00;87.30
57242;DHT22;43095;53.302;5.786;2024-01-07T08:22:13;-1.00;87.30
57242;DHT22;43095;53.302;5.786;2024-01-07T08:24:41;-1.00;87.40
57242;DHT22;43095;53.302;5.786;2024-01-07T08:27:08;-1.00;87.60
57242;DHT22;43095;53.302;5.786;2024-01-07T08:29:36;-1.00;87.60
57242;DHT22;43095;53.302;5.786;2024-01-07T08:32:03;-1.00;87.60
57242;DHT22;43095;53.302;5.786;2024-01-07T08:34:31;-1.00;87.70
57242;DHT22;43095;53.302;5.786;2024-01-07T08:36:58;-0.90;87.60
57242;DHT22;43095;53.302;5.786;2024-01-07T08:39:25;-0.90;87.70
57242;DHT22;43095;53.302;5.786;2024-01-07T08:41:55;-0.80;87.60
57242;DHT22;43095;53.302;5.786;2024-01-07T08:44:22;-0.80;87.50
57242;DHT22;43095;53.302;5.786;2024-01-07T08:46:49;-0.70;87.60
57242;DHT22;43095;53.302;5.786;2024-01-07T08:49:16;-0.70;87.50
57242;DHT22;43095;53.302;5.786;2024-01-07T08:51:43;-0.70;87.40
57242;DHT22;43095;53.302;5.786;2024-01-07T08:54:11;-0.70;87.50
57242;DHT22;43095;53.302;5.786;2024-01-07T08:56:38;-0.70;87.60
57242;DHT22;43095;53.302;5.786;2024-01-07T08:59:06;-0.60;86.80
57242;DHT22;43095;53.302;5.786;2024-01-07T09:01:33;-0.60;87.00
57242;DHT22;43095;53.302;5.786;2024-01-07T09:04:01;-0.60;86.90
57242;DHT22;43095;53.302;5.786;2024-01-07T09:06:28;-0.60;87.40
57242;DHT22;43095;53.302;5.786;2024-01-07T09:08:55;-0.60;87.40
57242;DHT22;43095;53.302;5.786;2024-01-07T09:11:22;-0.50;87.40
57242;DHT22;43095;53.302;5.786;2024-01-07T09:13:52;-0.50;87.50
57242;DHT22;43095;53.302;5.786;2024-01-07T09:16:19;-0.50;87.70
57242;DHT22;43095;53.302;5.786;2024-01-07T09:18:46;-0.50;87.40
57242;DHT22;43095;53.302;5.786;2024-01-07T09:21:14;-0.50;87.60
57242;DHT22;43095;53.302;5.786;2024-01-07T09:23:44;-0.50;87.50
57242;DHT22;43095;53.302;5.786;2024-01-07T09:26:11;-0.40;87.50
57242;DHT22;43095;53.302;5.786;2024-01-07T09:28:38;-0.40;87.50
57242;DHT22;43095;53.302;5.786;2024-01-07T09:31:06;-0.40;87.40
57242;DHT22;43095;53.302;5.786;2024-01-07T09:33:34;-0.40;87.30
57242;DHT22;43095;53.302;5.786;2024-01-07T09:36:01;-0.40;87.00
57242;DHT22;43095;53.302;5.786;2024-01-07T09:38:46;-0.40;87.20
57242;DHT22;43095;53.302;5.786;2024-01-07T09:41:13;-0.40;87.20
57242;DHT22;43095;53.302;5.786;2024-01-07T09:43:40;-0.40;87.30
57242;DHT22;43095;53.302;5.786;2024-01-07T09:46:07;-0.40;87.20
57242;DHT22;43095;53.302;5.786;2024-01-07T09:48:35;-0.40;87.10
57242;DHT22;43095;53.302;5.786;2024-01-07T09:51:03;-0.30;87.10
57242;DHT22;43095;53.302;5.786;2024-01-07T09:53:35;-0.30;87.20
57242;DHT22;43095;53.302;5.786;2024-01-07T09:56:22;-0.30;87.30
57242;DHT22;43095;53.302;5.786;2024-01-07T09:58:52;-0.30;87.50
57242;DHT22;43095;53.302;5.786;2024-01-07T10:01:19;-0.30;87.00
57242;DHT22;43095;53.302;5.786;2024-01-07T10:03:47;-0.30;86.80
57242;DHT22;43095;53.302;5.786;2024-01-07T10:06:18;-0.30;86.80
57242;DHT22;43095;53.302;5.786;2024-01-07T10:08:46;-0.20;87.20
57242;DHT22;43095;53.302;5.786;2024-01-07T10:11:14;-0.20;86.80
57242;DHT22;43095;53.302;5.786;2024-01-07T10:13:41;-0.20;86.90
57242;DHT22;43095;53.302;5.786;2024-01-07T10:16:08;-0.20;87.00
57242;DHT22;43095;53.302;5.786;2024-01-07T10:18:37;-0.10;86.90
57242;DHT22;43095;53.302;5.786;2024-01-07T10:21:06;-0.10;86.70
57242;DHT22;43095;53.302;5.786;2024-01-07T10:23:34;-0.10;86.70
57242;DHT22;43095;53.302;5.786;2024-01-07T10:26:01;-0.10;86.60
57242;DHT22;43095;53.302;5.786;2024-01-07T10:28:41;-0.10;86.40
57242;DHT22;43095;53.302;5.786;2024-01-07T10:31:10;-0.10;86.20
57242;DHT22;43095;53.302;5.786;2024-01-07T10:37:22;0.00;86.60
57242;DHT22;43095;53.302;5.786;2024-01-07T10:39:49;0.00;86.00
57242;DHT22;43095;53.302;5.786;2024-01-07T10:42:18;0.00;86.50
57242;DHT22;43095;53.302;5.786;2024-01-07T10:44:45;0.00;86.60
57242;DHT22;43095;53.302;5.786;2024-01-07T10:47:13;0.00;86.20
57242;DHT22;43095;53.302;5.786;2024-01-07T10:49:43;0.10;86.10
57242;DHT22;43095;53.302;5.786;2024-01-07T10:52:11;0.20;85.70
57242;DHT22;43095;53.302;5.786;2024-01-07T10:54:39;0.20;85.60
57242;DHT22;43095;53.302;5.786;2024-01-07T11:00:09;0.10;85.50
57242;DHT22;43095;53.302;5.786;2024-01-07T11:03:06;0.10;85.50
57242;DHT22;43095;53.302;5.786;2024-01-07T11:05:55;0.10;85.60
57242;DHT22;43095;53.302;5.786;2024-01-07T11:08:44;0.20;85.60
57242;DHT22;43095;53.302;5.786;2024-01-07T11:11:19;0.20;85.60
57242;DHT22;43095;53.302;5.786;2024-01-07T11:13:50;0.20;85.50
57242;DHT22;43095;53.302;5.786;2024-01-07T11:16:41;0.30;85.30
57242;DHT22;43095;53.302;5.786;2024-01-07T11:19:09;0.30;85.30
57242;DHT22;43095;53.302;5.786;2024-01-07T11:21:36;0.40;84.90
57242;DHT22;43095;53.302;5.786;2024-01-07T11:24:04;0.40;85.10
57242;DHT22;43095;53.302;5.786;2024-01-07T11:26:31;0.40;84.80
57242;DHT22;43095;53.302;5.786;2024-01-07T11:29:00;0.50;84.90
57242;DHT22;43095;53.302;5.786;2024-01-07T11:34:07;0.50;84.50
57242;DHT22;43095;53.302;5.786;2024-01-07T11:36:36;0.50;84.40
57242;DHT22;43095;53.302;5.786;2024-01-07T11:39:05;0.50;84.80
57242;DHT22;43095;53.302;5.786;2024-01-07T11:41:37;0.50;84.70
57242;DHT22;43095;53.302;5.786;2024-01-07T11:44:07;0.50;84.70
57242;DHT22;43095;53.302;5.786;2024-01-07T11:46:37;0.60;84.70
57242;DHT22;43095;53.302;5.786;2024-01-07T11:49:04;0.60;84.80
57242;DHT22;43095;53.302;5.786;2024-01-07T11:51:32;0.60;84.80
57242;DHT22;43095;53.302;5.786;2024-01-07T11:54:02;0.60;84.20
57242;DHT22;43095;53.302;5.786;2024-01-07T11:56:29;0.70;84.40
57242;DHT22;43095;53.302;5.786;2024-01-07T11:58:56;0.80;83.90
57242;DHT22;43095;53.302;5.786;2024-01-07T12:01:24;0.80;84.00
57242;DHT22;43095;53.302;5.786;2024-01-07T12:03:55;0.80;84.50
57242;DHT22;43095;53.302;5.786;2024-01-07T12:06:22;0.80;84.00
57242;DHT22;43095;53.302;5.786;2024-01-07T12:08:51;0.90;83.90
57242;DHT22;43095;53.302;5.786;2024-01-07T12:11:19;0.90;83.70
57242;DHT22;43095;53.302;5.786;2024-01-07T12:13:46;0.90;83.20
57242;DHT22;43095;53.302;5.786;2024-01-07T12:16:14;1.00;83.60
57242;DHT22;43095;53.302;5.786;2024-01-07T12:18:41;1.00;83.10
57242;DHT22;43095;53.302;5.786;2024-01-07T12:21:09;1.00;82.70
57242;DHT22;43095;53.302;5.786;2024-01-07T12:23:37;1.10;82.60
57242;DHT22;43095;53.302;5.786;2024-01-07T12:26:12;1.00;82.30
57242;DHT22;43095;53.302;5.786;2024-01-07T12:28:39;1.00;82.50
57242;DHT22;43095;53.302;5.786;2024-01-07T12:31:07;1.00;83.30
57242;DHT22;43095;53.302;5.786;2024-01-07T12:33:37;1.00;83.50
57242;DHT22;43095;53.302;5.786;2024-01-07T12:36:06;1.10;83.20
57242;DHT22;43095;53.302;5.786;2024-01-07T12:38:37;1.10;82.90
57242;DHT22;43095;53.302;5.786;2024-01-07T12:41:05;1.20;83.50
57242;DHT22;43095;53.302;5.786;2024-01-07T12:43:33;1.20;82.80
57242;DHT22;43095;53.302;5.786;2024-01-07T12:46:00;1.30;82.20
57242;DHT22;43095;53.302;5.786;2024-01-07T12:48:33;1.30;82.10
57242;DHT22;43095;53.302;5.786;2024-01-07T12:51:01;1.40;80.70
57242;DHT22;43095;53.302;5.786;2024-01-07T12:53:28;1.40;81.10
57242;DHT22;43095;53.302;5.786;2024-01-07T12:55:55;1.40;81.40
57242;DHT22;43095;53.302;5.786;2024-01-07T12:58:23;1.40;80.90
57242;DHT22;43095;53.302;5.786;2024-01-07T13:00:50;1.40;81.60
57242;DHT22;43095;53.302;5.786;2024-01-07T13:03:18;1.50;81.50
57242;DHT22;43095;53.302;5.786;2024-01-07T13:05:47;1.50;80.80
57242;DHT22;43095;53.302;5.786;2024-01-07T13:08:18;1.50;79.90
57242;DHT22;43095;53.302;5.786;2024-01-07T13:10:46;1.50;80.60
57242;DHT22;43095;53.302;5.786;2024-01-07T13:13:13;1.50;79.60
57242;DHT22;43095;53.302;5.786;2024-01-07T13:15:42;1.60;78.90
57242;DHT22;43095;53.302;5.786;2024-01-07T13:18:11;1.60;79.40
57242;DHT22;43095;53.302;5.786;2024-01-07T13:20:39;1.70;78.90
57242;DHT22;43095;53.302;5.786;2024-01-07T13:23:06;1.80;79.20
57242;DHT22;43095;53.302;5.786;2024-01-07T13:25:34;1.80;78.20
57242;DHT22;43095;53.302;5.786;2024-01-07T13:28:01;1.80;78.40
57242;DHT22;43095;53.302;5.786;2024-01-07T13:30:29;1.90;79.10
57242;DHT22;43095;53.302;5.786;2024-01-07T13:32:56;1.90;78.90
57242;DHT22;43095;53.302;5.786;2024-01-07T13:35:25;2.00;79.00
57242;DHT22;43095;53.302;5.786;2024-01-07T13:37:53;2.00;78.70
57242;DHT22;43095;53.302;5.786;2024-01-07T13:40:21;1.80;78.60
57242;DHT22;43095;53.302;5.786;2024-01-07T13:42:48;1.70;79.20
57242;DHT22;43095;53.302;5.786;2024-01-07T13:45:18;1.50;79.60
57242;DHT22;43095;53.302;5.786;2024-01-07T13:47:50;1.40;80.50
57242;DHT22;43095;53.302;5.786;2024-01-07T13:50:18;1.40;80.90
57242;DHT22;43095;53.302;5.786;2024-01-07T13:52:45;1.20;81.10
57242;DHT22;43095;53.302;5.786;2024-01-07T13:55:12;1.20;81.50
57242;DHT22;43095;53.302;5.786;2024-01-07T13:57:40;1.10;81.50
57242;DHT22;43095;53.302;5.786;2024-01-07T14:00:09;1.10;81.90
57242;DHT22;43095;53.302;5.786;2024-01-07T14:02:38;1.00;81.70
57242;DHT22;43095;53.302;5.786;2024-01-07T14:05:06;1.00;82.10
57242;DHT22;43095;53.302;5.786;2024-01-07T14:07:35;1.00;82.50
57242;DHT22;43095;53.302;5.786;2024-01-07T14:10:04;0.90;82.70
57242;DHT22;43095;53.302;5.786;2024-01-07T14:12:32;0.80;82.90
57242;DHT22;43095;53.302;5.786;2024-01-07T14:15:00;0.80;83.30
57242;DHT22;43095;53.302;5.786;2024-01-07T14:17:27;0.80;83.60
57242;DHT22;43095;53.302;5.786;2024-01-07T14:19:54;0.80;83.70
57242;DHT22;43095;53.302;5.786;2024-01-07T14:22:22;0.70;84.00
57242;DHT22;43095;53.302;5.786;2024-01-07T14:24:49;0.60;84.20
57242;DHT22;43095;53.302;5.786;2024-01-07T14:27:17;0.60;84.40
57242;DHT22;43095;53.302;5.786;2024-01-07T14:29:45;0.60;84.80
57242;DHT22;43095;53.302;5.786;2024-01-07T14:32:12;0.60;85.00
57242;DHT22;43095;53.302;5.786;2024-01-07T14:34:40;0.60;85.30
57242;DHT22;43095;53.302;5.786;2024-01-07T14:37:09;0.60;85.40
57242;DHT22;43095;53.302;5.786;2024-01-07T14:39:37;0.50;85.70
57242;DHT22;43095;53.302;5.786;2024-01-07T14:42:05;0.50;85.80
57242;DHT22;43095;53.302;5.786;2024-01-07T14:44:33;0.50;86.20
57242;DHT22;43095;53.302;5.786;2024-01-07T14:47:14;0.50;86.40
57242;DHT22;43095;53.302;5.786;2024-01-07T14:49:42;0.40;86.60
57242;DHT22;43095;53.302;5.786;2024-01-07T14:52:15;0.40;86.90
57242;DHT22;43095;53.302;5.786;2024-01-07T14:54:45;0.40;86.80
57242;DHT22;43095;53.302;5.786;2024-01-07T14:57:19;0.30;87.00
57242;DHT22;43095;53.302;5.786;2024-01-07T14:59:50;0.30;87.10
57242;DHT22;43095;53.302;5.786;2024-01-07T15:02:19;0.30;87.30
57242;DHT22;43095;53.302;5.786;2024-01-07T15:04:49;0.20;87.40
57242;DHT22;43095;53.302;5.786;2024-01-07T15:07:26;0.20;87.60
57242;DHT22;43095;53.302;5.786;2024-01-07T15:10:02;0.20;87.70
57242;DHT22;43095;53.302;5.786;2024-01-07T15:12:35;0.10;87.90
57242;DHT22;43095;53.302;5.786;2024-01-07T15:15:49;0.10;88.00
57242;DHT22;43095;53.302;5.786;2024-01-07T15:18:28;0.00;88.20
57242;DHT22;43095;53.302;5.786;2024-01-07T15:21:02;0.00;88.40
57242;DHT22;43095;53.302;5.786;2024-01-07T15:23:32;0.00;88.40
57242;DHT22;43095;53.302;5.786;2024-01-07T15:26:15;0.00;88.50
57242;DHT22;43095;53.302;5.786;2024-01-07T15:28:57;0.00;88.50
57242;DHT22;43095;53.302;5.786;2024-01-07T15:31:41;-0.10;88.60
57242;DHT22;43095;53.302;5.786;2024-01-07T15:34:14;-0.10;88.70
57242;DHT22;43095;53.302;5.786;2024-01-07T15:36:43;-0.10;88.90
57242;DHT22;43095;53.302;5.786;2024-01-07T15:39:18;-0.20;89.00
57242;DHT22;43095;53.302;5.786;2024-01-07T15:41:53;-0.20;89.00
57242;DHT22;43095;53.302;5.786;2024-01-07T15:44:26;-0.20;89.20
57242;DHT22;43095;53.302;5.786;2024-01-07T15:47:03;-0.30;89.30
57242;DHT22;43095;53.302;5.786;2024-01-07T15:49:34;-0.30;89.30
57242;DHT22;43095;53.302;5.786;2024-01-07T15:52:14;-0.30;89.50